Time;durP1;ratioP1;P1;durP2;ratioP2;P2;SDS_P1;SDS_P2;PMS_P1;PMS_P2;Temp;Humidity;BMP_temperature;BMP_pressure;BME280_temperature;BME280_humidity;BME280_pressure;Samples;Min_cycle;Max_cycle;Signal;HPM_P1;HPM_P2
2023/07/10 00:01:27;;;;;;;1.38;0.80;;;19.30;65.30;;;;;;5059938;28;20036;-78
2023/07/10 00:03:53;;;;;;;1.73;1.02;;;19.30;65.30;;;;;;5056693;28;20124;-78
2023/07/10 00:06:20;;;;;;;1.52;1.10;;;19.20;65.20;;;;;;5041736;28;20017;-78
2023/07/10 00:08:46;;;;;;;1.98;1.00;;;19.20;65.40;;;;;;5043279;28;20039;-78
2023/07/10 00:11:24;;;;;;;1.90;0.88;;;19.10;65.30;;;;;;5055083;28;20033;-78
2023/07/10 00:13:50;;;;;;;2.33;1.10;;;19.10;65.40;;;;;;5047783;28;20044;-77
2023/07/10 00:16:19;;;;;;;2.83;1.20;;;19.10;65.40;;;;;;5051586;28;20044;-79
2023/07/10 00:18:46;;;;;;;3.13;0.90;;;19.10;65.50;;;;;;5026478;28;20096;-77
2023/07/10 00:21:12;;;;;;;1.70;0.85;;;19.10;65.60;;;;;;5028434;28;20029;-77
2023/07/10 00:23:38;;;;;;;4.07;1.17;;;19.10;65.70;;;;;;5049071;28;20746;-77
2023/07/10 00:26:17;;;;;;;2.33;0.82;;;19.00;65.50;;;;;;5050589;28;20166;-77
2023/07/10 00:28:43;;;;;;;1.15;0.80;;;19.00;65.70;;;;;;5041794;28;20041;-77
2023/07/10 00:31:09;;;;;;;2.50;0.82;;;19.00;65.60;;;;;;5037627;28;20135;-77
2023/07/10 00:33:35;;;;;;;2.17;0.95;;;19.00;65.70;;;;;;5042119;28;20135;-76
2023/07/10 00:36:04;;;;;;;2.17;0.90;;;19.00;65.80;;;;;;5026153;28;20032;-77
2023/07/10 00:38:31;;;;;;;4.43;1.00;;;18.90;65.70;;;;;;5054263;28;20071;-77
2023/07/10 00:41:00;;;;;;;3.53;1.40;;;18.90;65.80;;;;;;5057408;28;20041;-77
2023/07/10 00:43:41;;;;;;;3.10;1.10;;;18.90;65.90;;;;;;5050272;28;20566;-77
2023/07/10 00:46:35;;;;;;;4.07;1.42;;;18.80;65.80;;;;;;5038774;28;20079;-77
2023/07/10 00:49:30;;;;;;;1.75;0.90;;;18.80;65.90;;;;;;5034147;28;20159;-77
2023/07/10 00:52:16;;;;;;;3.95;0.80;;;18.80;65.80;;;;;;5037153;28;20762;-77
2023/07/10 00:54:46;;;;;;;4.32;1.17;;;18.80;66.00;;;;;;5048870;28;20260;-77
2023/07/10 00:57:20;;;;;;;5.10;1.30;;;18.70;65.80;;;;;;5041840;28;20040;-77
2023/07/10 00:59:46;;;;;;;3.00;1.15;;;18.70;66.00;;;;;;5039917;28;20029;-77
2023/07/10 01:02:12;;;;;;;3.08;1.00;;;18.60;65.80;;;;;;5027615;28;20040;-77
2023/07/10 01:04:41;;;;;;;3.97;1.25;;;18.60;65.90;;;;;;5047963;28;20370;-77
2023/07/10 01:07:14;;;;;;;5.82;1.23;;;18.60;66.10;;;;;;5034987;28;20629;-77
2023/07/10 01:09:43;;;;;;;2.53;1.15;;;18.60;66.10;;;;;;5024211;28;20461;-77
2023/07/10 01:12:11;;;;;;;4.88;1.60;;;18.60;66.20;;;;;;5042908;28;20047;-77
2023/07/10 01:14:38;;;;;;;2.15;1.08;;;18.50;66.10;;;;;;5043457;28;20485;-77
2023/07/10 01:17:05;;;;;;;2.63;1.20;;;18.50;66.10;;;;;;5043768;28;20563;-77
2023/07/10 01:19:33;;;;;;;5.60;2.13;;;18.50;66.20;;;;;;5048468;28;20047;-77
2023/07/10 01:22:00;;;;;;;3.60;1.25;;;18.40;66.10;;;;;;5041950;28;20032;-77
2023/07/10 01:24:30;;;;;;;3.70;1.35;;;18.40;66.20;;;;;;5042432;28;20037;-78
2023/07/10 01:26:57;;;;;;;2.80;1.20;;;18.30;66.10;;;;;;5025106;28;20123;-77
2023/07/10 01:29:42;;;;;;;1.55;1.23;;;18.30;66.20;;;;;;5052658;28;20268;-77
2023/07/10 01:32:13;;;;;;;2.85;0.90;;;18.30;66.40;;;;;;5034051;28;20056;-77
2023/07/10 01:34:50;;;;;;;4.57;1.42;;;18.30;66.40;;;;;;5046864;28;20297;-78
2023/07/10 01:37:20;;;;;;;6.25;1.63;;;18.20;66.30;;;;;;5040518;28;20279;-78
2023/07/10 01:39:52;;;;;;;6.45;1.40;;;18.20;66.30;;;;;;5029816;28;20025;-78
2023/07/10 01:42:19;;;;;;;2.63;1.00;;;18.20;66.30;;;;;;5034831;28;20043;-78
2023/07/10 01:44:48;;;;;;;4.82;1.70;;;18.20;66.80;;;;;;5037852;28;20067;-77
2023/07/10 01:47:15;;;;;;;2.28;1.13;;;18.20;66.40;;;;;;5036479;28;20028;-77
2023/07/10 01:49:51;;;;;;;5.10;1.60;;;18.20;66.50;;;;;;5046631;28;20127;-76
2023/07/10 01:52:19;;;;;;;2.20;1.63;;;18.10;66.40;;;;;;5044130;28;20052;-77
2023/07/10 01:54:46;;;;;;;4.72;1.17;;;18.10;66.50;;;;;;5026453;28;20047;-77
2023/07/10 01:57:16;;;;;;;2.63;1.42;;;18.10;66.50;;;;;;5035466;28;20032;-76
2023/07/10 01:59:43;;;;;;;2.25;0.80;;;18.10;66.60;;;;;;5043114;28;20461;-78
2023/07/10 02:02:12;;;;;;;2.17;1.30;;;18.10;66.60;;;;;;5031536;28;20131;-77
2023/07/10 02:04:39;;;;;;;1.75;0.77;;;18.00;66.50;;;;;;5052694;28;20032;-77
2023/07/10 02:07:06;;;;;;;4.15;1.48;;;18.00;66.60;;;;;;5038336;28;20094;-77
2023/07/10 02:09:32;;;;;;;3.80;1.38;;;18.00;66.70;;;;;;5049788;28;20029;-78
2023/07/10 02:12:00;;;;;;;3.58;1.02;;;18.00;66.70;;;;;;5040266;28;20049;-78
2023/07/10 02:14:29;;;;;;;5.15;1.45;;;17.90;66.60;;;;;;5034626;28;20028;-77
2023/07/10 02:16:57;;;;;;;2.83;1.05;;;17.90;66.70;;;;;;5054524;28;20025;-78
2023/07/10 02:19:23;;;;;;;7.03;1.85;;;17.90;66.80;;;;;;5047449;28;20175;-77
2023/07/10 02:21:49;;;;;;;4.57;1.55;;;17.90;66.90;;;;;;5046964;28;20032;-77
2023/07/10 02:24:17;;;;;;;6.03;1.60;;;17.80;66.70;;;;;;5044995;28;20040;-77
2023/07/10 02:26:44;;;;;;;2.03;1.17;;;17.80;66.80;;;;;;5062720;28;20040;-77
2023/07/10 02:29:10;;;;;;;2.40;1.10;;;17.80;66.90;;;;;;5033415;28;20427;-77
2023/07/10 02:31:43;;;;;;;3.80;1.23;;;17.80;66.90;;;;;;5058035;28;20049;-77
2023/07/10 02:34:09;;;;;;;3.42;1.45;;;17.70;66.70;;;;;;5036819;28;20036;-78
2023/07/10 02:36:39;;;;;;;2.97;1.45;;;17.70;66.70;;;;;;5042993;28;20392;-77
2023/07/10 02:39:05;;;;;;;5.45;1.90;;;17.70;66.80;;;;;;5049593;28;20127;-78
2023/07/10 02:41:32;;;;;;;3.83;1.00;;;17.70;66.90;;;;;;5025453;28;20473;-77
2023/07/10 02:44:04;;;;;;;2.85;1.40;;;17.70;66.90;;;;;;5059848;28;20407;-77
2023/07/10 02:46:33;;;;;;;3.50;1.27;;;17.70;67.00;;;;;;5033842;28;20492;-77
2023/07/10 02:49:00;;;;;;;2.03;1.05;;;17.70;67.10;;;;;;5035447;28;20049;-76
2023/07/10 02:51:29;;;;;;;2.40;1.00;;;17.70;67.10;;;;;;5042663;28;20500;-76
2023/07/10 02:53:55;;;;;;;2.47;1.08;;;17.60;66.90;;;;;;5048867;28;20041;-77
2023/07/10 02:56:22;;;;;;;1.92;1.08;;;17.60;67.00;;;;;;5030764;28;20032;-77
2023/07/10 02:58:49;;;;;;;2.53;1.30;;;17.60;67.00;;;;;;5037277;28;20041;-77
2023/07/10 03:01:16;;;;;;;1.70;1.10;;;17.60;67.10;;;;;;5026366;28;20029;-77
2023/07/10 03:03:45;;;;;;;4.18;1.20;;;17.60;67.10;;;;;;5054386;28;20029;-77
2023/07/10 03:06:12;;;;;;;2.00;1.20;;;17.50;67.00;;;;;;5063572;28;20410;-77
2023/07/10 03:08:40;;;;;;;2.20;1.10;;;17.50;67.10;;;;;;5060987;28;20039;-77
2023/07/10 03:11:12;;;;;;;2.85;1.08;;;17.50;67.10;;;;;;5062099;28;20041;-76
2023/07/10 03:13:38;;;;;;;2.17;1.20;;;17.50;67.70;;;;;;5045153;28;20303;-77
2023/07/10 03:16:08;;;;;;;4.32;1.30;;;17.50;67.30;;;;;;5047118;28;20128;-77
2023/07/10 03:18:37;;;;;;;2.35;1.00;;;17.40;67.20;;;;;;5043752;28;20032;-77
2023/07/10 03:21:06;;;;;;;2.10;1.10;;;17.40;67.20;;;;;;5060523;28;20502;-77
2023/07/10 03:23:33;;;;;;;3.83;1.42;;;17.40;67.20;;;;;;5047333;28;20032;-78
2023/07/10 03:26:03;;;;;;;2.97;1.20;;;17.40;67.30;;;;;;5067209;28;20078;-77
2023/07/10 03:28:33;;;;;;;2.42;0.90;;;17.30;67.20;;;;;;5066176;28;20028;-77
2023/07/10 03:30:59;;;;;;;2.95;1.10;;;17.30;67.20;;;;;;5065742;28;20441;-78
2023/07/10 03:33:25;;;;;;;3.42;0.95;;;17.30;67.80;;;;;;5055491;28;20056;-77
2023/07/10 03:35:59;;;;;;;4.13;1.17;;;17.30;67.40;;;;;;5067105;28;20322;-77
2023/07/10 03:38:25;;;;;;;5.00;1.00;;;17.30;67.50;;;;;;5042608;28;20041;-77
2023/07/10 03:40:52;;;;;;;2.92;1.10;;;17.30;67.50;;;;;;5049834;28;20062;-77
2023/07/10 03:43:18;;;;;;;3.13;1.10;;;17.30;67.50;;;;;;5059822;28;20029;-77
2023/07/10 03:45:44;;;;;;;4.13;1.02;;;17.30;67.60;;;;;;5039432;28;20039;-77
2023/07/10 03:48:10;;;;;;;4.72;1.13;;;17.30;67.70;;;;;;5048570;28;20025;-77
2023/07/10 03:50:36;;;;;;;2.08;0.98;;;17.20;67.50;;;;;;5052858;28;20097;-77
2023/07/10 03:53:03;;;;;;;3.55;1.20;;;17.30;67.70;;;;;;5031303;28;20075;-77
2023/07/10 03:55:29;;;;;;;4.75;1.50;;;17.20;67.60;;;;;;5051576;28;20036;-77
2023/07/10 03:57:55;;;;;;;5.85;1.75;;;17.20;67.70;;;;;;5051657;28;20063;-76
2023/07/10 04:00:21;;;;;;;3.83;1.38;;;17.20;67.70;;;;;;5060008;28;20279;-76
2023/07/10 04:02:47;;;;;;;2.10;0.98;;;17.20;67.80;;;;;;5035072;28;20029;-77
2023/07/10 04:05:13;;;;;;;2.53;1.08;;;17.20;67.80;;;;;;5049451;28;20032;-77
2023/07/10 04:07:39;;;;;;;4.22;1.48;;;17.20;67.90;;;;;;5055543;28;20060;-77
2023/07/10 04:10:05;;;;;;;2.45;0.98;;;17.20;67.90;;;;;;5041130;28;20078;-77
2023/07/10 04:12:31;;;;;;;3.05;1.58;;;17.10;67.80;;;;;;5028690;28;20072;-78
2023/07/10 04:14:57;;;;;;;3.03;1.58;;;17.10;67.80;;;;;;5051770;28;20037;-77
2023/07/10 04:17:23;;;;;;;2.42;1.38;;;17.10;67.90;;;;;;5020156;28;20115;-78
2023/07/10 04:19:49;;;;;;;5.93;1.40;;;17.10;68.00;;;;;;5053149;28;20057;-77
2023/07/10 04:22:15;;;;;;;2.85;1.00;;;17.10;68.00;;;;;;5048340;28;20051;-77
2023/07/10 04:24:41;;;;;;;2.60;1.13;;;17.10;68.10;;;;;;5029257;28;20036;-76
2023/07/10 04:27:07;;;;;;;6.97;1.77;;;17.10;68.20;;;;;;5046699;28;20032;-79
2023/07/10 04:29:33;;;;;;;6.82;1.85;;;17.10;68.20;;;;;;5039434;28;20070;-78
2023/07/10 04:31:59;;;;;;;3.42;1.58;;;17.10;68.30;;;;;;5048720;28;20049;-77
2023/07/10 04:34:25;;;;;;;3.28;1.77;;;17.10;68.30;;;;;;5058548;28;20067;-78
2023/07/10 04:36:51;;;;;;;3.38;1.75;;;17.10;68.30;;;;;;5030579;28;20410;-78
2023/07/10 04:39:17;;;;;;;4.03;1.42;;;17.10;68.30;;;;;;5046265;28;20032;-78
2023/07/10 04:41:44;;;;;;;4.47;1.70;;;17.10;68.40;;;;;;5048548;28;20031;-77
2023/07/10 04:44:10;;;;;;;4.53;1.83;;;17.10;68.40;;;;;;5057570;28;20060;-77
2023/07/10 04:46:36;;;;;;;4.75;2.10;;;17.10;68.50;;;;;;5053295;28;20227;-78
2023/07/10 04:49:02;;;;;;;4.68;1.95;;;17.20;68.70;;;;;;5059216;28;20036;-78
2023/07/10 04:51:28;;;;;;;3.55;1.70;;;17.20;68.70;;;;;;5047488;28;20393;-78
2023/07/10 04:53:54;;;;;;;5.28;1.90;;;17.20;68.70;;;;;;5033252;28;20427;-78
2023/07/10 04:56:20;;;;;;;5.68;1.88;;;17.20;68.70;;;;;;5047556;28;20122;-78
2023/07/10 04:58:48;;;;;;;1.83;1.40;;;17.20;68.70;;;;;;5042912;28;20032;-77
2023/07/10 05:01:15;;;;;;;4.50;2.00;;;17.30;68.90;;;;;;5016764;28;20306;-78
2023/07/10 05:03:41;;;;;;;2.40;1.75;;;17.30;68.80;;;;;;5030830;28;20104;-78
2023/07/10 05:06:07;;;;;;;4.80;1.35;;;17.30;68.80;;;;;;5048131;28;20132;-78
2023/07/10 05:08:33;;;;;;;6.70;2.28;;;17.40;69.00;;;;;;5037976;28;20028;-77
2023/07/10 05:10:58;;;;;;;3.40;1.70;;;17.40;69.00;;;;;;5048430;28;20052;-78
2023/07/10 05:13:28;;;;;;;4.18;2.00;;;17.40;68.90;;;;;;5050336;28;20035;-76
2023/07/10 05:15:56;;;;;;;4.60;2.08;;;17.50;69.10;;;;;;5035041;28;20024;-78
2023/07/10 05:18:22;;;;;;;4.45;1.65;;;17.50;69.00;;;;;;5051044;28;20477;-78
2023/07/10 05:20:48;;;;;;;2.50;1.60;;;17.60;69.10;;;;;;5044483;28;20047;-78
2023/07/10 05:23:16;;;;;;;6.28;2.38;;;17.60;69.00;;;;;;5043527;28;20545;-78
2023/07/10 05:25:57;;;;;;;6.03;1.80;;;17.70;69.70;;;;;;5050553;28;20216;-77
2023/07/10 05:28:24;;;;;;;2.60;1.73;;;17.80;69.40;;;;;;5050138;28;20044;-77
2023/07/10 05:30:50;;;;;;;4.05;1.80;;;17.90;69.30;;;;;;5046837;28;20048;-79
2023/07/10 05:33:16;;;;;;;5.20;1.65;;;18.10;69.70;;;;;;5037080;28;20870;-78
2023/07/10 05:35:57;;;;;;;4.18;2.03;;;18.20;69.80;;;;;;5036548;28;20468;-77
2023/07/10 05:38:26;;;;;;;3.28;1.80;;;18.30;70.00;;;;;;5030764;28;20036;-77
2023/07/10 05:40:52;;;;;;;3.60;1.60;;;18.50;69.90;;;;;;5051651;28;20031;-78
2023/07/10 05:43:19;;;;;;;2.95;1.48;;;18.70;70.00;;;;;;5050809;28;20040;-79
2023/07/10 05:45:47;;;;;;;6.05;1.88;;;18.80;70.00;;;;;;5033689;28;20837;-77
2023/07/10 05:48:13;;;;;;;5.97;1.70;;;19.00;70.10;;;;;;5047252;28;20032;-76
2023/07/10 05:50:42;;;;;;;3.20;1.20;;;19.20;70.30;;;;;;5055913;28;20543;-77
2023/07/10 05:53:08;;;;;;;3.97;1.77;;;19.40;70.70;;;;;;5044289;28;20070;-78
2023/07/10 05:55:34;;;;;;;6.78;2.28;;;19.50;70.80;;;;;;5032714;28;20750;-78
2023/07/10 05:58:00;;;;;;;5.97;2.40;;;19.70;71.20;;;;;;5025626;28;20048;-80
2023/07/10 06:00:27;;;;;;;5.00;2.50;;;19.80;71.40;;;;;;5043330;28;20025;-78
2023/07/10 06:02:53;;;;;;;4.53;1.38;;;19.90;71.60;;;;;;5046672;28;20098;-79
2023/07/10 06:05:19;;;;;;;5.50;2.10;;;20.10;71.70;;;;;;5047908;28;20382;-78
2023/07/10 06:07:45;;;;;;;3.70;1.73;;;20.20;71.80;;;;;;5036262;28;20032;-77
2023/07/10 06:10:11;;;;;;;3.50;1.60;;;20.30;71.80;;;;;;5033955;28;20182;-80
2023/07/10 06:12:37;;;;;;;4.65;2.10;;;20.50;72.10;;;;;;5030462;28;20775;-76
2023/07/10 06:15:03;;;;;;;2.67;1.60;;;20.50;72.00;;;;;;5017753;28;20044;-77
2023/07/10 06:17:29;;;;;;;3.08;1.48;;;20.60;72.00;;;;;;5051194;28;20105;-76
2023/07/10 06:19:55;;;;;;;4.00;1.80;;;20.70;72.10;;;;;;5045639;28;20028;-77
2023/07/10 06:22:27;;;;;;;5.28;1.50;;;20.70;72.00;;;;;;5038458;28;20306;-77
2023/07/10 06:24:53;;;;;;;3.30;1.73;;;20.80;72.10;;;;;;5042257;28;20029;-77
2023/07/10 06:27:19;;;;;;;5.70;1.63;;;20.90;72.20;;;;;;5033255;28;20029;-78
2023/07/10 06:29:45;;;;;;;6.88;2.28;;;21.00;72.30;;;;;;5047355;28;20045;-78
2023/07/10 06:32:12;;;;;;;3.05;1.58;;;20.90;72.00;;;;;;5043028;28;20082;-78
2023/07/10 06:34:38;;;;;;;5.40;1.55;;;21.00;72.10;;;;;;5041958;28;20460;-79
2023/07/10 06:37:04;;;;;;;3.08;1.42;;;21.10;72.30;;;;;;5040941;28;20052;-77
2023/07/10 06:39:30;;;;;;;5.90;1.75;;;21.10;72.20;;;;;;5041272;28;20033;-79
2023/07/10 06:41:56;;;;;;;2.28;1.45;;;21.20;72.40;;;;;;5034672;28;20098;-78
2023/07/10 06:44:27;;;;;;;3.72;1.30;;;21.20;72.30;;;;;;5036702;28;20029;-78
2023/07/10 06:46:53;;;;;;;4.80;1.98;;;21.20;72.10;;;;;;5044340;28;20037;-78
2023/07/10 06:49:20;;;;;;;2.55;1.30;;;21.30;72.10;;;;;;5041513;28;20041;-77
2023/07/10 06:51:46;;;;;;;4.28;1.40;;;21.30;72.00;;;;;;5032883;28;20098;-78
2023/07/10 06:54:14;;;;;;;2.95;1.65;;;21.40;72.00;;;;;;5013801;28;20504;-79
2023/07/10 06:56:40;;;;;;;4.32;1.75;;;21.50;71.90;;;;;;5040882;28;20097;-78
2023/07/10 06:59:13;;;;;;;3.97;1.30;;;21.50;71.80;;;;;;5035211;28;20567;-77
2023/07/10 07:01:39;;;;;;;2.85;1.50;;;21.50;71.60;;;;;;5031069;28;20063;-77
2023/07/10 07:04:08;;;;;;;5.85;1.85;;;21.60;71.70;;;;;;5038523;28;20495;-76
2023/07/10 07:06:35;;;;;;;4.57;1.42;;;21.60;71.50;;;;;;5039091;28;20522;-77
2023/07/10 07:09:04;;;;;;;6.40;1.30;;;21.70;71.50;;;;;;5037085;28;20055;-76
2023/07/10 07:11:31;;;;;;;4.35;1.48;;;21.80;71.40;;;;;;5032610;28;20489;-78
2023/07/10 07:13:57;;;;;;;4.70;1.20;;;22.00;71.30;;;;;;5026888;28;20037;-80
2023/07/10 07:16:23;;;;;;;6.82;2.60;;;22.00;70.90;;;;;;5040847;28;20119;-79
2023/07/10 07:18:51;;;;;;;4.07;1.38;;;22.10;70.80;;;;;;5036966;28;20052;-81
2023/07/10 07:21:17;;;;;;;2.45;1.50;;;22.30;70.70;;;;;;5026741;28;20036;-81
2023/07/10 07:23:44;;;;;;;5.40;1.40;;;22.40;70.40;;;;;;5021935;28;20509;-80
2023/07/10 07:26:12;;;;;;;4.53;1.25;;;22.50;70.20;;;;;;5041586;28;20037;-82
2023/07/10 07:28:38;;;;;;;6.45;1.85;;;22.60;70.10;;;;;;5035563;28;20029;-81
2023/07/10 07:31:05;;;;;;;7.80;1.60;;;22.70;69.90;;;;;;5043753;28;20128;-81
2023/07/10 07:33:31;;;;;;;4.95;1.17;;;22.90;69.80;;;;;;5051477;28;20055;-82
2023/07/10 07:36:00;;;;;;;4.82;1.70;;;23.10;69.60;;;;;;5026851;28;20040;-81
2023/07/10 07:38:26;;;;;;;3.20;1.35;;;23.30;69.40;;;;;;5037970;28;20495;-81
2023/07/10 07:40:53;;;;;;;17.23;2.50;;;23.40;69.20;;;;;;5034264;28;20099;-80
2023/07/10 07:43:19;;;;;;;18.65;2.35;;;23.50;69.00;;;;;;5022299;28;20067;-79
2023/07/10 07:45:56;;;;;;;4.45;1.75;;;23.50;68.70;;;;;;5039161;28;20180;-79
2023/07/10 07:48:25;;;;;;;3.65;1.33;;;23.50;68.40;;;;;;5014246;28;20033;-80
2023/07/10 07:50:59;;;;;;;4.00;1.70;;;23.50;68.40;;;;;;5041717;28;20051;-81
2023/07/10 07:53:27;;;;;;;5.35;1.58;;;23.50;68.30;;;;;;5035483;28;20033;-79
2023/07/10 07:55:53;;;;;;;6.95;2.30;;;23.50;68.20;;;;;;5050387;28;20037;-79
2023/07/10 07:58:20;;;;;;;3.85;1.52;;;23.50;68.20;;;;;;5023756;28;20036;-81
2023/07/10 08:00:46;;;;;;;4.68;1.60;;;23.50;68.10;;;;;;5041165;28;20028;-79
2023/07/10 08:03:12;;;;;;;3.13;1.63;;;23.50;67.90;;;;;;5044578;28;20036;-78
2023/07/10 08:05:39;;;;;;;2.72;1.52;;;23.60;68.00;;;;;;5046501;28;20048;-78
2023/07/10 08:08:10;;;;;;;3.10;1.73;;;23.60;67.80;;;;;;5036878;28;20029;-78
2023/07/10 08:10:41;;;;;;;4.93;1.73;;;23.60;68.30;;;;;;5048277;28;20028;-78
2023/07/10 08:13:11;;;;;;;3.75;1.55;;;23.60;67.60;;;;;;5035454;28;20094;-78
2023/07/10 08:15:37;;;;;;;4.10;1.65;;;23.60;67.50;;;;;;5046470;28;20080;-81
2023/07/10 08:18:04;;;;;;;4.35;1.73;;;23.70;67.60;;;;;;5025815;28;20033;-77
2023/07/10 08:20:30;;;;;;;2.83;1.25;;;23.70;67.30;;;;;;5025729;28;20025;-78
2023/07/10 08:22:56;;;;;;;4.10;1.70;;;23.80;67.30;;;;;;5038276;28;20522;-78
2023/07/10 08:25:22;;;;;;;4.93;1.90;;;23.80;67.20;;;;;;5039392;28;20908;-78
2023/07/10 08:27:48;;;;;;;3.85;1.50;;;23.90;67.10;;;;;;5047253;28;20043;-78
2023/07/10 08:30:17;;;;;;;10.32;1.67;;;24.10;67.20;;;;;;5027378;28;20374;-78
2023/07/10 08:32:44;;;;;;;4.82;1.45;;;24.20;67.00;;;;;;5039118;28;20135;-77
2023/07/10 08:35:15;;;;;;;4.13;1.48;;;24.40;66.90;;;;;;5045371;28;20091;-78
2023/07/10 08:37:41;;;;;;;4.80;1.38;;;24.60;66.70;;;;;;5043558;28;20659;-78
2023/07/10 08:40:15;;;;;;;5.97;1.83;;;24.80;66.50;;;;;;5034346;28;20041;-77
2023/07/10 08:42:42;;;;;;;7.85;1.45;;;25.00;66.10;;;;;;5039019;28;20538;-78
2023/07/10 08:45:20;;;;;;;6.15;2.13;;;25.10;65.80;;;;;;5053650;28;20558;-78
2023/07/10 08:47:56;;;;;;;4.95;1.58;;;25.30;65.40;;;;;;5035986;28;20029;-78
2023/07/10 08:50:28;;;;;;;3.75;1.70;;;25.50;65.00;;;;;;5038885;28;20464;-78
2023/07/10 08:53:12;;;;;;;4.43;1.55;;;25.60;64.60;;;;;;5032323;28;20044;-78
2023/07/10 08:56:03;;;;;;;6.97;1.83;;;25.80;64.10;;;;;;5036464;28;20041;-78
2023/07/10 08:58:33;;;;;;;7.05;1.85;;;25.90;63.70;;;;;;5046028;28;20070;-78
2023/07/10 09:01:09;;;;;;;4.70;1.95;;;26.10;63.40;;;;;;5025455;28;20473;-78
2023/07/10 09:03:46;;;;;;;5.65;1.58;;;26.10;62.90;;;;;;5046301;28;20424;-79
2023/07/10 09:06:30;;;;;;;5.18;1.40;;;26.30;62.60;;;;;;5050318;28;20131;-78
2023/07/10 09:08:57;;;;;;;4.60;1.67;;;26.30;62.30;;;;;;5048833;28;20468;-78
2023/07/10 09:11:24;;;;;;;5.15;2.15;;;26.40;62.10;;;;;;5051322;28;20041;-78
2023/07/10 09:14:00;;;;;;;5.43;1.85;;;26.60;61.70;;;;;;5042194;28;20119;-78
2023/07/10 09:16:26;;;;;;;7.85;2.58;;;26.70;61.10;;;;;;5045159;28;20119;-78
2023/07/10 09:18:58;;;;;;;4.35;1.42;;;26.90;60.70;;;;;;5041717;28;20618;-78
2023/07/10 09:21:29;;;;;;;6.63;2.10;;;27.00;60.30;;;;;;5037900;28;20758;-78
2023/07/10 09:23:55;;;;;;;4.35;1.77;;;27.00;60.00;;;;;;5050485;28;20484;-78
2023/07/10 09:26:27;;;;;;;6.65;1.52;;;27.00;59.80;;;;;;5035290;28;20036;-78
2023/07/10 09:29:15;;;;;;;5.03;1.45;;;27.00;59.50;;;;;;5012838;28;20036;-78
2023/07/10 09:31:55;;;;;;;5.63;1.63;;;27.10;59.40;;;;;;5034534;28;20057;-78
2023/07/10 09:34:32;;;;;;;5.47;1.58;;;27.20;58.90;;;;;;5033537;28;20060;-78
2023/07/10 09:37:02;;;;;;;5.57;1.90;;;27.40;58.70;;;;;;5039945;28;20119;-78
2023/07/10 09:39:30;;;;;;;5.07;1.67;;;27.30;58.40;;;;;;5040500;28;20033;-78
2023/07/10 09:41:58;;;;;;;7.05;2.20;;;27.20;58.40;;;;;;5048252;28;20067;-78
2023/07/10 09:44:46;;;;;;;4.35;1.00;;;27.10;58.50;;;;;;5032721;28;20371;-78
2023/07/10 09:47:14;;;;;;;7.10;2.10;;;26.90;59.20;;;;;;5041292;28;20350;-77
2023/07/10 09:49:53;;;;;;;4.20;1.58;;;26.70;59.10;;;;;;5042042;28;20280;-77
2023/07/10 09:52:38;;;;;;;5.53;2.22;;;26.50;59.20;;;;;;5045249;28;20044;-77
2023/07/10 09:55:15;;;;;;;3.42;1.38;;;26.40;59.50;;;;;;5048304;28;20624;-78
2023/07/10 09:57:54;;;;;;;5.90;1.70;;;26.30;59.80;;;;;;5041518;28;20556;-78
2023/07/10 10:00:24;;;;;;;5.32;2.03;;;26.20;59.90;;;;;;5044788;28;20128;-78
2023/07/10 10:03:26;;;;;;;4.53;1.70;;;26.20;60.10;;;;;;5049397;28;20039;-77
2023/07/10 10:05:57;;;;;;;5.53;1.77;;;26.20;60.00;;;;;;4999653;28;20050;-77
2023/07/10 10:08:47;;;;;;;4.40;1.65;;;26.50;59.90;;;;;;5057038;28;20399;-77
2023/07/10 10:11:14;;;;;;;6.53;2.03;;;26.80;59.20;;;;;;5039166;28;20071;-78
2023/07/10 10:13:58;;;;;;;5.65;1.55;;;27.10;58.70;;;;;;5041808;28;20039;-78
2023/07/10 10:16:41;;;;;;;3.92;1.38;;;27.30;58.00;;;;;;5042746;28;20135;-78
2023/07/10 10:19:23;;;;;;;4.80;1.88;;;27.50;57.60;;;;;;5039552;28;20048;-79
2023/07/10 10:21:50;;;;;;;4.53;1.77;;;27.70;57.20;;;;;;5039791;28;20052;-78
2023/07/10 10:24:16;;;;;;;6.15;1.92;;;27.90;57.00;;;;;;5049133;28;20403;-78
2023/07/10 10:27:09;;;;;;;7.47;2.10;;;27.90;56.70;;;;;;5033428;28;20083;-78
2023/07/10 10:29:54;;;;;;;3.60;1.77;;;27.80;56.30;;;;;;5026408;28;20078;-77
2023/07/10 10:32:35;;;;;;;5.57;1.92;;;27.70;56.40;;;;;;5036627;28;20056;-84
2023/07/10 10:35:22;;;;;;;4.05;1.60;;;27.60;56.40;;;;;;5037186;28;20043;-81
2023/07/10 10:38:20;;;;;;;6.82;2.35;;;27.60;56.50;;;;;;5038784;28;20090;-80
2023/07/10 10:41:03;;;;;;;6.07;1.90;;;27.60;56.60;;;;;;5019873;28;20033;-79
2023/07/10 10:43:32;;;;;;;6.25;1.95;;;27.60;56.70;;;;;;5033124;28;20033;-80
2023/07/10 10:46:03;;;;;;;7.60;2.30;;;27.70;56.80;;;;;;5057692;28;20037;-79
2023/07/10 10:48:44;;;;;;;9.23;2.58;;;27.80;56.70;;;;;;5032529;28;20536;-78
2023/07/10 10:51:26;;;;;;;6.60;2.58;;;28.00;56.40;;;;;;5056286;28;20111;-79
2023/07/10 10:54:10;;;;;;;9.67;2.27;;;28.40;56.10;;;;;;5025640;28;20033;-78
2023/07/10 10:56:58;;;;;;;6.65;2.47;;;28.60;55.70;;;;;;5046039;28;20406;-78
2023/07/10 10:59:41;;;;;;;7.00;2.20;;;28.90;55.30;;;;;;5030411;28;20033;-80
2023/07/10 11:02:41;;;;;;;6.47;2.28;;;29.40;54.60;;;;;;5037368;28;20364;-78
2023/07/10 11:05:39;;;;;;;8.43;2.53;;;29.90;53.80;;;;;;5045726;28;20048;-79
2023/07/10 11:08:19;;;;;;;7.18;2.65;;;30.50;52.70;;;;;;5045185;28;20029;-78
2023/07/10 11:10:47;;;;;;;3.13;1.77;;;30.80;52.10;;;;;;5051263;28;20482;-78
2023/07/10 11:13:35;;;;;;;6.38;2.45;;;31.00;51.90;;;;;;5032374;28;20208;-78
2023/07/10 11:16:04;;;;;;;5.45;2.17;;;31.10;51.10;;;;;;5029075;28;20033;-78
2023/07/10 11:18:30;;;;;;;5.25;1.70;;;31.20;50.90;;;;;;5026759;28;20033;-77
2023/07/10 11:20:57;;;;;;;3.72;1.73;;;31.40;50.70;;;;;;5050715;28;20614;-77
2023/07/10 11:23:56;;;;;;;3.40;1.73;;;31.40;50.30;;;;;;5047997;28;20086;-77
2023/07/10 11:26:29;;;;;;;5.72;1.92;;;31.40;50.00;;;;;;5016773;28;20128;-77
2023/07/10 11:29:16;;;;;;;3.25;1.63;;;31.30;50.10;;;;;;5028723;28;20234;-77
2023/07/10 11:31:43;;;;;;;6.20;2.00;;;31.20;50.10;;;;;;5034999;28;20053;-78
2023/07/10 11:34:12;;;;;;;5.43;1.50;;;31.20;50.10;;;;;;5045078;28;20112;-77
2023/07/10 11:36:43;;;;;;;5.45;2.40;;;31.10;50.00;;;;;;5047548;28;20036;-77
2023/07/10 11:39:09;;;;;;;5.40;2.05;;;31.10;50.00;;;;;;5029832;28;20032;-78
2023/07/10 11:41:38;;;;;;;4.80;1.80;;;31.10;49.80;;;;;;5038276;28;20040;-78
2023/07/10 11:44:34;;;;;;;4.78;2.53;;;31.20;49.70;;;;;;5025041;28;20418;-77
2023/07/10 11:47:06;;;;;;;5.85;2.38;;;31.40;49.20;;;;;;5052445;28;20025;-78
2023/07/10 11:49:35;;;;;;;7.13;2.17;;;31.50;49.20;;;;;;5041798;28;20037;-78
2023/07/10 11:52:31;;;;;;;4.30;1.83;;;31.60;48.90;;;;;;5056590;28;20048;-79
2023/07/10 11:55:06;;;;;;;5.13;1.95;;;31.70;48.50;;;;;;5024073;28;20040;-79
2023/07/10 11:57:35;;;;;;;8.90;2.30;;;31.70;48.50;;;;;;5031753;28;20579;-78
2023/07/10 12:00:14;;;;;;;4.10;1.73;;;31.70;48.30;;;;;;5039315;28;20283;-79
2023/07/10 12:02:51;;;;;;;5.72;2.58;;;31.70;48.20;;;;;;5053680;28;20437;-79
2023/07/10 12:05:30;;;;;;;9.90;2.70;;;31.60;48.20;;;;;;5037015;28;20487;-79
2023/07/10 12:08:13;;;;;;;5.03;2.08;;;31.50;48.10;;;;;;5023911;28;20366;-79
2023/07/10 12:10:50;;;;;;;7.50;2.40;;;31.40;48.10;;;;;;5038553;28;20342;-81
2023/07/10 12:13:17;;;;;;;3.88;1.52;;;31.40;48.20;;;;;;5042849;28;20155;-79
2023/07/10 12:15:46;;;;;;;4.57;1.65;;;31.40;48.20;;;;;;5018551;28;20526;-80
2023/07/10 12:18:31;;;;;;;6.00;1.90;;;31.30;48.10;;;;;;5027858;28;20047;-78
2023/07/10 12:21:03;;;;;;;3.05;1.70;;;31.20;47.90;;;;;;5053835;28;20052;-79
2023/07/10 12:23:30;;;;;;;5.38;2.13;;;31.20;48.10;;;;;;5037430;28;20037;-79
2023/07/10 12:25:58;;;;;;;4.20;1.50;;;31.10;48.20;;;;;;5025301;28;20590;-79
2023/07/10 12:28:26;;;;;;;5.65;2.15;;;31.00;48.00;;;;;;5047686;28;20170;-79
2023/07/10 12:30:54;;;;;;;5.30;1.73;;;31.00;48.00;;;;;;5034900;28;20251;-80
2023/07/10 12:33:46;;;;;;;5.97;1.63;;;31.00;48.00;;;;;;5047310;28;20048;-79
2023/07/10 12:36:33;;;;;;;4.82;1.88;;;30.80;47.90;;;;;;5047494;28;20028;-78
2023/07/10 12:39:03;;;;;;;4.35;1.45;;;30.70;48.10;;;;;;5005996;28;20126;-78
2023/07/10 12:41:41;;;;;;;4.38;1.38;;;30.60;48.50;;;;;;5040345;28;20029;-79
2023/07/10 12:44:36;;;;;;;3.45;1.35;;;30.50;48.80;;;;;;5052642;28;20547;-79
2023/07/10 12:47:04;;;;;;;7.53;1.98;;;30.40;48.90;;;;;;5050360;28;20493;-77
2023/07/10 12:49:31;;;;;;;3.67;1.38;;;30.30;49.20;;;;;;5052016;28;20044;-77
2023/07/10 12:51:59;;;;;;;5.20;1.88;;;30.40;49.20;;;;;;5028906;28;20040;-78
2023/07/10 12:54:41;;;;;;;6.55;1.88;;;30.40;49.20;;;;;;5025115;28;20037;-77
2023/07/10 12:57:18;;;;;;;3.30;1.80;;;30.40;49.10;;;;;;5049546;28;20373;-78
2023/07/10 12:59:47;;;;;;;5.43;1.60;;;30.40;49.10;;;;;;5041152;28;20611;-79
2023/07/10 13:02:26;;;;;;;5.85;1.88;;;30.30;49.20;;;;;;5056292;28;20025;-78
2023/07/10 13:05:02;;;;;;;2.65;1.23;;;30.30;49.40;;;;;;5051497;28;20060;-80